Time;durP1;ratioP1;P1;durP2;ratioP2;P2;SDS_P1;SDS_P2;PMS_P1;PMS_P2;Temp;Humidity;BMP_temperature;BMP_pressure;BME280_temperature;BME280_humidity;BME280_pressure;Samples;Min_cycle;Max_cycle;Signal;HPM_P1;HPM_P2
2023/10/01 00:01:00;;;;;;;492.48;344.65;;;27.40;99.90;;;;;;5116143;28;20043;-71
2023/10/01 00:03:27;;;;;;;532.20;394.13;;;27.40;99.90;;;;;;5116180;28;20023;-70
2023/10/01 00:05:53;;;;;;;489.05;344.15;;;27.40;99.90;;;;;;5116275;28;20030;-70
2023/10/01 00:08:20;;;;;;;466.95;328.88;;;27.50;99.90;;;;;;5116223;28;20031;-71
2023/10/01 00:10:48;;;;;;;455.55;319.40;;;27.50;99.90;;;;;;5105913;28;20031;-71
2023/10/01 00:13:15;;;;;;;471.60;326.65;;;27.60;99.90;;;;;;5095718;28;20055;-71
2023/10/01 00:15:41;;;;;;;451.27;318.75;;;27.60;99.90;;;;;;5095708;28;20056;-70
2023/10/01 00:18:08;;;;;;;431.65;288.05;;;27.60;99.90;;;;;;5095532;28;20021;-70
2023/10/01 00:20:35;;;;;;;419.15;281.60;;;27.60;99.90;;;;;;5095538;28;20028;-71
2023/10/01 00:23:05;;;;;;;396.85;270.90;;;27.60;99.90;;;;;;5095255;28;20355;-72
2023/10/01 00:25:35;;;;;;;374.85;257.13;;;27.60;99.90;;;;;;5095078;28;20435;-71
2023/10/01 00:28:04;;;;;;;393.17;268.90;;;27.60;99.90;;;;;;5095634;28;20027;-69
2023/10/01 00:30:33;;;;;;;377.67;256.42;;;27.70;99.90;;;;;;5095083;28;20020;-69
2023/10/01 00:33:05;;;;;;;377.85;252.45;;;27.70;99.90;;;;;;5094831;28;20039;-71
2023/10/01 00:35:31;;;;;;;355.17;239.95;;;27.70;99.90;;;;;;5109264;28;20028;-70
2023/10/01 00:37:58;;;;;;;362.80;241.13;;;27.80;99.90;;;;;;5097223;28;20418;-72
2023/10/01 00:40:24;;;;;;;364.00;243.35;;;27.80;99.90;;;;;;5115645;28;20032;-71
2023/10/01 00:42:51;;;;;;;322.42;220.23;;;27.90;99.90;;;;;;5097628;28;20024;-71
2023/10/01 00:45:17;;;;;;;260.35;178.70;;;27.90;99.90;;;;;;5094966;28;20016;-72
2023/10/01 00:47:46;;;;;;;290.13;188.05;;;28.00;99.90;;;;;;5095041;28;20482;-71
2023/10/01 00:50:16;;;;;;;280.33;182.40;;;28.10;99.90;;;;;;5094986;28;20498;-70
2023/10/01 00:52:44;;;;;;;275.73;180.98;;;28.10;99.90;;;;;;5094940;28;20039;-71
2023/10/01 00:55:13;;;;;;;257.30;175.75;;;28.20;99.90;;;;;;5094973;28;20080;-71
2023/10/01 00:57:41;;;;;;;263.55;176.95;;;28.20;99.90;;;;;;5094962;28;20038;-71
2023/10/01 01:00:16;;;;;;;292.90;199.02;;;28.30;99.90;;;;;;5094833;28;20024;-70
2023/10/01 01:02:57;;;;;;;279.23;168.93;;;28.40;99.90;;;;;;5094741;28;20044;-66
2023/10/01 01:05:34;;;;;;;247.60;159.85;;;28.50;99.90;;;;;;5094887;28;20103;-67
2023/10/01 01:08:22;;;;;;;244.50;159.32;;;28.50;99.90;;;;;;5094724;28;20028;-67
2023/10/01 01:10:51;;;;;;;284.45;186.68;;;28.60;99.90;;;;;;5094816;28;20016;-66
2023/10/01 01:13:17;;;;;;;277.60;182.45;;;28.70;99.90;;;;;;5094811;28;20393;-65
2023/10/01 01:15:52;;;;;;;257.63;169.30;;;28.70;99.90;;;;;;5094779;28;20028;-67
2023/10/01 01:18:21;;;;;;;286.98;175.70;;;28.70;99.90;;;;;;5094868;28;20102;-66
2023/10/01 01:20:48;;;;;;;309.67;202.40;;;28.80;99.90;;;;;;5094396;28;20024;-67
2023/10/01 01:23:18;;;;;;;286.92;189.68;;;28.90;99.90;;;;;;5096060;28;20020;-65
2023/10/01 01:25:46;;;;;;;260.33;175.38;;;28.90;99.90;;;;;;5114884;28;20028;-68
2023/10/01 01:28:12;;;;;;;257.40;162.75;;;29.00;99.90;;;;;;5107594;28;20044;-67
2023/10/01 01:30:43;;;;;;;260.17;168.20;;;29.10;99.90;;;;;;5094213;28;20028;-66
2023/10/01 01:33:13;;;;;;;286.02;182.77;;;29.10;99.90;;;;;;5094260;28;20059;-67
2023/10/01 01:35:43;;;;;;;275.38;184.75;;;29.20;99.90;;;;;;5074046;28;20107;-66
2023/10/01 01:38:09;;;;;;;282.08;183.13;;;29.20;99.90;;;;;;5081292;28;20031;-65
2023/10/01 01:40:40;;;;;;;254.98;167.30;;;29.30;99.90;;;;;;5086920;28;20061;-64
2023/10/01 01:43:16;;;;;;;232.45;156.10;;;29.40;99.90;;;;;;5094892;28;20059;-62
2023/10/01 01:45:44;;;;;;;321.58;221.85;;;29.50;99.90;;;;;;5096296;28;20067;-65
2023/10/01 01:51:00;;;;;;;217.52;139.75;;;29.60;99.90;;;;;;5097053;28;20016;-65
2023/10/01 01:53:34;;;;;;;184.82;119.28;;;29.70;99.90;;;;;;5096509;28;20058;-66
2023/10/01 01:56:08;;;;;;;180.45;122.93;;;29.70;99.90;;;;;;5083448;28;20103;-70
2023/10/01 01:58:35;;;;;;;192.93;127.43;;;29.80;99.90;;;;;;5086351;28;20387;-65
2023/10/01 02:03:44;;;;;;;212.30;139.25;;;29.90;99.90;;;;;;5085171;28;20032;-69
2023/10/01 02:06:10;;;;;;;173.60;116.75;;;29.90;99.90;;;;;;5080410;28;20478;-66
2023/10/01 02:08:50;;;;;;;167.77;108.88;;;30.00;99.90;;;;;;5077979;28;20032;-69
2023/10/01 02:11:19;;;;;;;157.18;109.13;;;30.00;99.90;;;;;;5078145;28;20062;-70
2023/10/01 02:13:46;;;;;;;174.43;115.32;;;30.10;99.90;;;;;;5078299;28;20024;-70
2023/10/01 02:19:11;;;;;;;186.30;124.18;;;30.20;99.90;;;;;;5083098;28;20029;-70
2023/10/01 02:22:00;;;;;;;172.48;112.85;;;30.20;99.90;;;;;;5084482;28;20016;-67
2023/10/01 02:24:45;;;;;;;162.05;107.80;;;30.30;99.90;;;;;;5084827;28;20381;-67
2023/10/01 02:27:26;;;;;;;161.27;99.85;;;30.40;99.90;;;;;;5086204;28;20048;-66
2023/10/01 02:30:15;;;;;;;148.18;100.45;;;30.50;99.90;;;;;;5087212;28;20020;-69
2023/10/01 02:32:49;;;;;;;209.25;137.05;;;30.50;99.90;;;;;;5081647;28;20028;-65
2023/10/01 02:35:35;;;;;;;182.90;109.22;;;30.60;99.90;;;;;;5082776;28;20537;-67
2023/10/01 02:38:36;;;;;;;173.70;109.32;;;30.70;99.90;;;;;;5082771;28;20016;-67
2023/10/01 02:40:58;;;;;;;206.93;118.40;;;30.80;99.90;;;;;;5082554;28;20020;-66
2023/10/01 02:43:33;;;;;;;203.30;119.97;;;30.90;99.90;;;;;;5082949;28;20033;-69
2023/10/01 02:46:04;;;;;;;198.30;122.60;;;30.90;99.90;;;;;;5083647;28;20048;-67
2023/10/01 02:48:31;;;;;;;205.73;122.50;;;30.90;99.90;;;;;;5086255;28;20023;-66
2023/10/01 02:51:14;;;;;;;222.27;132.13;;;31.00;99.90;;;;;;5091975;28;20020;-67
2023/10/01 02:54:06;;;;;;;236.38;139.40;;;31.10;99.90;;;;;;5090618;28;20043;-67
2023/10/01 02:56:52;;;;;;;236.13;139.00;;;31.20;99.90;;;;;;5085932;28;20016;-66
2023/10/01 02:59:22;;;;;;;246.77;144.85;;;31.30;99.90;;;;;;5086413;28;20063;-67
2023/10/01 03:01:49;;;;;;;250.40;145.40;;;31.30;99.90;;;;;;5087006;28;20398;-68
2023/10/01 03:04:17;;;;;;;263.60;152.35;;;31.30;99.90;;;;;;5087036;28;20025;-67
2023/10/01 03:06:52;;;;;;;302.80;172.65;;;31.30;99.90;;;;;;5087326;28;20019;-66
2023/10/01 03:09:33;;;;;;;291.85;164.75;;;31.30;99.90;;;;;;5084057;28;20028;-66
2023/10/01 03:15:16;;;;;;;340.25;197.75;;;31.50;99.90;;;;;;5087829;28;20039;-68
2023/10/01 03:17:58;;;;;;;398.92;218.60;;;31.50;99.90;;;;;;5086727;28;20028;-68
2023/10/01 03:23:06;;;;;;;430.73;267.98;;;31.60;99.90;;;;;;5087625;28;20120;-67
2023/10/01 03:25:57;;;;;;;464.50;284.88;;;31.60;99.90;;;;;;5089147;28;20052;-65
2023/10/01 03:28:28;;;;;;;454.40;266.75;;;31.70;99.90;;;;;;5084093;28;20437;-68
2023/10/01 03:31:09;;;;;;;463.10;281.40;;;31.80;99.90;;;;;;5086388;28;20028;-68
2023/10/01 03:33:40;;;;;;;453.52;271.42;;;31.80;99.90;;;;;;5086239;28;20089;-68
2023/10/01 03:36:11;;;;;;;409.45;242.63;;;31.80;99.90;;;;;;5084248;28;20028;-68
2023/10/01 03:38:45;;;;;;;360.90;214.50;;;31.80;99.90;;;;;;5089644;28;20020;-67
2023/10/01 03:41:21;;;;;;;317.15;184.35;;;31.80;99.90;;;;;;5090199;28;20511;-66
2023/10/01 03:44:08;;;;;;;288.15;168.13;;;32.00;99.90;;;;;;5089213;28;20039;-67
2023/10/01 03:46:42;;;;;;;244.88;141.70;;;32.10;99.90;;;;;;5090281;28;20020;-66
2023/10/01 03:52:09;;;;;;;180.73;114.18;;;32.20;99.90;;;;;;5076166;28;20031;-64
2023/10/01 03:57:31;;;;;;;228.35;158.05;;;32.30;99.90;;;;;;5075335;28;20028;-66
2023/10/01 04:00:10;;;;;;;181.15;108.25;;;32.20;99.90;;;;;;5086513;28;20372;-68
2023/10/01 04:02:46;;;;;;;126.70;78.18;;;32.20;99.90;;;;;;5086218;28;20075;-71
2023/10/01 04:05:22;;;;;;;96.88;65.20;;;32.30;99.90;;;;;;5086600;28;20026;-71
2023/10/01 04:07:50;;;;;;;91.82;62.50;;;32.40;99.90;;;;;;5085625;28;20100;-72
2023/10/01 04:10:38;;;;;;;81.97;58.17;;;32.60;99.90;;;;;;5089253;28;20016;-72
2023/10/01 04:13:20;;;;;;;90.47;62.33;;;32.70;99.90;;;;;;5086622;28;20044;-72
2023/10/01 04:15:55;;;;;;;91.90;63.90;;;32.80;99.90;;;;;;5084977;28;20025;-72
2023/10/01 04:18:23;;;;;;;80.70;58.92;;;32.90;99.90;;;;;;5131521;22;20051;-71
2023/10/01 04:23:30;;;;;;;78.50;56.17;;;33.10;99.90;;;;;;5113219;28;20016;-72
2023/10/01 04:26:00;;;;;;;83.25;55.70;;;33.20;99.90;;;;;;5115864;28;20016;-72
2023/10/01 04:28:31;;;;;;;75.60;55.38;;;33.30;99.90;;;;;;5113185;28;20027;-72
2023/10/01 04:30:57;;;;;;;86.03;60.72;;;33.30;99.90;;;;;;5112825;28;20027;-71
2023/10/01 04:33:24;;;;;;;88.63;63.08;;;33.40;99.90;;;;;;5112386;28;20030;-73
2023/10/01 04:35:51;;;;;;;84.15;59.80;;;33.30;99.90;;;;;;5115322;28;20023;-72
2023/10/01 04:38:26;;;;;;;80.68;60.10;;;33.20;99.90;;;;;;5106671;28;20034;-73
2023/10/01 04:40:53;;;;;;;85.90;61.63;;;33.20;99.90;;;;;;5115102;28;21030;-73
2023/10/01 04:43:20;;;;;;;87.95;63.30;;;33.20;99.90;;;;;;5112294;28;20106;-73
2023/10/01 04:45:52;;;;;;;80.57;61.03;;;33.20;99.90;;;;;;5114191;27;20051;-74
2023/10/01 04:48:23;;;;;;;89.90;60.53;;;33.10;99.90;;;;;;5112738;28;20477;-72
2023/10/01 04:50:55;;;;;;;76.07;59.97;;;33.30;99.90;;;;;;5115319;28;20059;-72
2023/10/01 04:53:25;;;;;;;77.55;56.67;;;33.30;99.90;;;;;;5112831;28;20020;-72
2023/10/01 04:56:05;;;;;;;81.72;61.17;;;33.30;99.90;;;;;;5115000;28;20535;-72
2023/10/01 04:58:42;;;;;;;78.47;58.17;;;33.40;99.90;;;;;;5114415;28;20061;-73
2023/10/01 05:01:12;;;;;;;80.57;61.58;;;33.60;99.90;;;;;;5104811;28;20020;-69
2023/10/01 05:03:40;;;;;;;93.57;68.82;;;33.60;99.90;;;;;;5085294;28;20020;-74
2023/10/01 05:06:15;;;;;;;96.72;66.97;;;33.70;99.90;;;;;;5084319;28;20463;-73
2023/10/01 05:08:42;;;;;;;109.03;79.53;;;33.80;99.90;;;;;;5089633;28;20035;-74
2023/10/01 05:11:16;;;;;;;106.82;76.93;;;33.80;99.90;;;;;;5083571;28;20024;-74
2023/10/01 05:13:47;;;;;;;107.35;78.55;;;33.90;99.90;;;;;;5087330;28;20032;-74
2023/10/01 05:16:18;;;;;;;102.07;73.93;;;34.00;99.90;;;;;;5085128;28;20495;-74
2023/10/01 05:19:03;;;;;;;106.20;76.65;;;34.00;99.90;;;;;;5086245;28;20051;-75
2023/10/01 05:21:36;;;;;;;123.22;88.25;;;34.00;99.90;;;;;;5086844;28;20028;-73
2023/10/01 05:24:03;;;;;;;128.10;87.65;;;34.00;99.90;;;;;;5086302;28;20024;-75
2023/10/01 05:26:35;;;;;;;120.90;85.72;;;33.90;99.90;;;;;;5087863;28;20020;-73
2023/10/01 05:29:07;;;;;;;123.53;87.07;;;33.90;99.90;;;;;;5079795;28;20038;-75
2023/10/01 05:31:34;;;;;;;121.43;83.72;;;34.00;99.90;;;;;;5077146;28;20022;-76
2023/10/01 05:34:01;;;;;;;125.43;86.95;;;34.00;99.90;;;;;;5084736;28;20024;-72
2023/10/01 05:36:29;;;;;;;130.25;88.13;;;34.00;99.90;;;;;;5089681;28;20028;-70
2023/10/01 05:38:56;;;;;;;149.70;89.07;;;34.00;99.90;;;;;;5084439;28;20478;-74
2023/10/01 05:41:32;;;;;;;152.60;101.47;;;34.10;99.90;;;;;;5089963;28;20339;-73
2023/10/01 05:44:02;;;;;;;170.60;107.35;;;34.20;99.90;;;;;;5087116;28;20103;-74
2023/10/01 05:46:30;;;;;;;164.23;110.88;;;34.30;99.90;;;;;;5084113;28;20025;-72
2023/10/01 05:49:00;;;;;;;174.15;119.13;;;34.20;99.90;;;;;;5089323;28;20386;-71
2023/10/01 05:51:44;;;;;;;160.60;109.72;;;34.20;99.90;;;;;;5084614;28;20425;-74
2023/10/01 05:54:18;;;;;;;151.15;103.28;;;34.20;99.90;;;;;;5090778;28;20020;-72
2023/10/01 05:56:48;;;;;;;151.45;103.97;;;34.10;99.90;;;;;;5082458;28;20547;-71
2023/10/01 05:59:22;;;;;;;159.88;107.35;;;34.20;99.90;;;;;;5084498;28;20050;-70
2023/10/01 06:01:49;;;;;;;166.30;107.55;;;34.10;99.90;;;;;;5084144;28;20046;-72
2023/10/01 06:04:18;;;;;;;154.75;105.15;;;34.20;99.90;;;;;;5086464;28;20027;-71
2023/10/01 06:06:46;;;;;;;157.18;104.68;;;34.30;99.90;;;;;;5093287;28;20020;-68
2023/10/01 06:09:15;;;;;;;141.18;99.60;;;34.30;99.90;;;;;;5084600;28;20478;-70
2023/10/01 06:12:03;;;;;;;149.02;100.10;;;34.30;99.90;;;;;;5074065;28;20023;-68
2023/10/01 06:14:38;;;;;;;158.13;105.90;;;34.50;99.90;;;;;;5073633;28;20060;-67
2023/10/01 06:17:07;;;;;;;142.57;103.82;;;34.60;99.90;;;;;;5084255;28;20035;-72
2023/10/01 06:19:41;;;;;;;141.50;99.20;;;34.70;99.90;;;;;;5076134;28;20040;-69
2023/10/01 06:22:15;;;;;;;154.32;100.95;;;34.70;99.90;;;;;;5083383;28;20016;-69
2023/10/01 06:24:46;;;;;;;140.38;99.95;;;34.70;99.90;;;;;;5081835;28;20502;-68
2023/10/01 06:27:18;;;;;;;138.70;93.75;;;34.70;99.90;;;;;;5083634;28;20382;-68
2023/10/01 06:29:51;;;;;;;137.40;91.85;;;34.70;99.90;;;;;;5080133;28;20672;-67
2023/10/01 06:32:23;;;;;;;119.40;86.68;;;34.80;99.90;;;;;;5081905;28;20390;-67
2023/10/01 06:34:51;;;;;;;;;;;34.90;99.90;;;;;;5083164;28;20111;-66
2023/10/01 06:37:20;;;;;;;127.00;91.15;;;35.10;99.90;;;;;;5083734;28;20354;-66
2023/10/01 06:39:47;;;;;;;120.78;90.63;;;35.20;99.90;;;;;;5089287;28;20025;-67
2023/10/01 06:42:20;;;;;;;126.22;88.32;;;35.20;99.90;;;;;;5082578;28;20021;-68
2023/10/01 06:44:58;;;;;;;156.77;93.75;;;35.20;99.90;;;;;;5082892;28;20024;-66
2023/10/01 06:47:28;;;;;;;133.95;94.07;;;35.30;99.90;;;;;;5083115;28;20091;-66
2023/10/01 06:50:07;;;;;;;135.20;93.07;;;35.40;99.90;;;;;;5085744;28;20413;-66
2023/10/01 06:52:41;;;;;;;134.57;93.40;;;35.40;99.90;;;;;;5093401;28;20033;-67
2023/10/01 06:55:25;;;;;;;128.13;93.78;;;35.40;99.90;;;;;;5093067;28;20107;-66
2023/10/01 06:57:53;;;;;;;140.80;97.07;;;35.50;99.90;;;;;;5093026;28;20028;-67
2023/10/01 07:00:22;;;;;;;144.05;99.25;;;35.50;99.90;;;;;;5092954;28;20091;-68
2023/10/01 07:02:49;;;;;;;146.18;99.25;;;35.40;99.90;;;;;;5093068;28;20051;-66
2023/10/01 07:05:25;;;;;;;140.05;101.32;;;35.40;99.90;;;;;;5092904;28;20031;-67
2023/10/01 07:07:54;;;;;;;149.35;106.38;;;35.40;99.90;;;;;;5086714;28;20046;-67
2023/10/01 07:10:21;;;;;;;185.50;128.07;;;35.30;99.90;;;;;;5075384;28;20391;-67
2023/10/01 07:13:04;;;;;;;174.75;119.50;;;35.20;99.90;;;;;;5085178;28;20032;-67
2023/10/01 07:15:37;;;;;;;160.55;119.80;;;35.20;99.90;;;;;;5088905;28;20024;-67
2023/10/01 07:18:15;;;;;;;136.93;103.75;;;35.20;99.90;;;;;;5092713;28;20447;-67
2023/10/01 07:20:45;;;;;;;139.77;102.95;;;35.20;99.90;;;;;;5092893;28;20024;-67
2023/10/01 07:23:15;;;;;;;169.43;119.72;;;35.30;99.90;;;;;;5092894;28;20036;-66
2023/10/01 07:25:47;;;;;;;172.52;125.47;;;35.30;99.90;;;;;;5093007;28;20020;-66
2023/10/01 07:28:13;;;;;;;211.45;151.05;;;35.30;99.90;;;;;;5092780;28;20054;-65
2023/10/01 07:30:51;;;;;;;231.65;167.38;;;35.30;99.90;;;;;;5089658;28;20153;-70
2023/10/01 07:33:18;;;;;;;198.75;141.20;;;35.20;99.90;;;;;;5094254;28;20072;-69
2023/10/01 07:35:58;;;;;;;214.77;159.98;;;35.20;99.90;;;;;;5096669;28;20016;-72
2023/10/01 07:38:28;;;;;;;176.13;127.30;;;35.10;99.90;;;;;;5096338;28;20394;-68
2023/10/01 07:40:58;;;;;;;171.38;128.80;;;35.10;99.90;;;;;;5096462;28;20047;-69
2023/10/01 07:43:30;;;;;;;163.07;114.18;;;35.10;99.90;;;;;;5094922;28;20107;-69
2023/10/01 07:46:02;;;;;;;166.80;115.65;;;35.10;99.90;;;;;;5096385;28;20028;-71
2023/10/01 07:48:31;;;;;;;179.55;124.72;;;35.10;99.90;;;;;;5096518;28;20028;-70
2023/10/01 07:51:03;;;;;;;183.90;132.05;;;35.10;99.90;;;;;;5093854;28;20482;-70
2023/10/01 07:53:42;;;;;;;195.07;137.75;;;35.10;99.90;;;;;;5095906;28;20123;-70
2023/10/01 07:56:15;;;;;;;208.52;145.85;;;35.20;99.90;;;;;;5095012;28;20039;-67
2023/10/01 07:58:45;;;;;;;193.73;137.45;;;35.30;99.90;;;;;;5094848;28;20097;-67
2023/10/01 08:03:57;;;;;;;190.93;141.38;;;35.20;99.90;;;;;;5092835;28;20038;-67
2023/10/01 08:06:29;;;;;;;198.93;142.70;;;35.30;99.90;;;;;;5096068;28;20036;-68
2023/10/01 08:09:01;;;;;;;200.45;146.32;;;35.30;99.90;;;;;;5095828;28;20012;-69
2023/10/01 08:14:16;;;;;;;205.30;149.15;;;35.20;99.90;;;;;;5096251;28;19991;-67
2023/10/01 08:16:48;;;;;;;193.50;141.63;;;35.20;99.90;;;;;;5095787;28;20032;-66
2023/10/01 08:19:21;;;;;;;203.63;142.98;;;35.10;99.90;;;;;;5092308;28;20032;-67
2023/10/01 08:21:50;;;;;;;198.20;141.82;;;35.10;99.90;;;;;;5084450;28;20107;-66
2023/10/01 08:24:18;;;;;;;213.55;151.48;;;35.10;99.90;;;;;;5079831;28;20032;-66
2023/10/01 08:27:12;;;;;;;211.57;150.95;;;35.10;99.90;;;;;;5085625;28;20073;-67
2023/10/01 08:32:24;;;;;;;223.57;157.10;;;35.00;99.90;;;;;;5080289;28;20044;-66
2023/10/01 08:35:06;;;;;;;236.93;166.02;;;35.00;99.90;;;;;;5089142;28;20020;-71
2023/10/01 08:37:37;;;;;;;;;;;35.00;99.90;;;;;;5086584;28;20080;-71
2023/10/01 08:40:13;;;;;;;259.17;178.05;;;35.10;99.90;;;;;;5085678;28;19915;-74
2023/10/01 08:42:44;;;;;;;252.98;178.32;;;35.10;99.90;;;;;;5086016;28;20493;-74
2023/10/01 08:45:12;;;;;;;261.40;185.35;;;35.10;99.90;;;;;;5085146;28;20016;-69
2023/10/01 08:47:45;;;;;;;265.63;189.30;;;35.10;99.90;;;;;;5083651;28;20035;-70
2023/10/01 08:50:27;;;;;;;262.35;188.45;;;35.00;99.90;;;;;;5090265;28;20035;-71
2023/10/01 08:52:58;;;;;;;293.02;203.00;;;35.10;99.90;;;;;;5081468;28;20414;-69
2023/10/01 08:55:39;;;;;;;282.60;199.77;;;34.90;99.90;;;;;;5082866;28;20023;-71
2023/10/01 09:00:52;;;;;;;268.33;187.63;;;34.70;99.90;;;;;;5084667;28;20024;-71
2023/10/01 09:03:34;;;;;;;278.50;193.70;;;34.70;99.90;;;;;;5089875;28;20494;-71
2023/10/01 09:06:24;;;;;;;300.10;205.27;;;34.80;99.90;;;;;;5089854;28;20016;-71
2023/10/01 09:08:54;;;;;;;261.48;188.80;;;34.80;99.90;;;;;;5088446;28;20016;-71
2023/10/01 09:11:35;;;;;;;264.05;189.73;;;34.80;99.90;;;;;;5085945;28;20021;-71
2023/10/01 09:14:20;;;;;;;266.15;192.50;;;34.70;99.90;;;;;;5083895;28;20023;-70
2023/10/01 09:16:57;;;;;;;283.27;195.73;;;34.70;99.90;;;;;;5083711;28;20013;-70
2023/10/01 09:19:34;;;;;;;267.48;184.20;;;34.80;99.90;;;;;;5083575;28;20028;-71
2023/10/01 09:22:58;;;;;;;257.45;182.85;;;34.80;99.90;;;;;;5084076;28;20300;-72
2023/10/01 09:25:21;;;;;;;248.38;174.05;;;34.80;99.90;;;;;;5072455;28;20040;-73
2023/10/01 09:28:19;;;;;;;236.70;167.73;;;34.70;99.90;;;;;;5087504;28;20031;-72
2023/10/01 09:31:01;;;;;;;235.07;163.90;;;34.70;99.90;;;;;;5086674;28;20560;-71
2023/10/01 09:33:31;;;;;;;231.02;163.60;;;34.60;99.90;;;;;;5084584;28;20032;-71
2023/10/01 09:36:01;;;;;;;230.75;159.45;;;34.60;99.90;;;;;;5079503;28;20352;-71
2023/10/01 09:38:28;;;;;;;229.45;160.15;;;34.60;99.90;;;;;;5082597;28;20483;-70
2023/10/01 09:40:56;;;;;;;237.32;164.45;;;34.60;99.90;;;;;;5087471;28;20407;-70
2023/10/01 09:43:33;;;;;;;227.57;158.15;;;34.50;99.90;;;;;;5087818;28;20107;-71
2023/10/01 09:46:01;;;;;;;231.77;158.80;;;34.40;99.90;;;;;;5087712;28;20020;-71
2023/10/01 09:48:29;;;;;;;214.45;148.50;;;34.40;99.90;;;;;;5083232;28;20474;-70
2023/10/01 09:51:15;;;;;;;231.85;155.02;;;34.40;99.90;;;;;;5082967;28;20547;-70
2023/10/01 09:53:48;;;;;;;227.38;154.80;;;34.40;99.90;;;;;;5081841;28;20024;-71
2023/10/01 09:56:26;;;;;;;244.68;159.02;;;34.40;99.90;;;;;;5082410;28;20032;-70
2023/10/01 09:59:07;;;;;;;230.05;160.02;;;34.40;99.90;;;;;;5084102;28;20077;-70
2023/10/01 10:01:36;;;;;;;233.93;158.93;;;34.40;99.90;;;;;;5082099;28;20086;-71
2023/10/01 10:04:08;;;;;;;238.90;158.18;;;34.40;99.90;;;;;;5082806;28;20055;-70
2023/10/01 10:06:36;;;;;;;239.23;162.70;;;34.40;99.90;;;;;;5084751;28;20047;-69
2023/10/01 10:09:05;;;;;;;215.45;148.98;;;34.40;99.70;;;;;;5084322;28;20089;-69
2023/10/01 10:11:40;;;;;;;229.18;153.77;;;34.30;99.90;;;;;;5085716;28;20021;-71
2023/10/01 10:14:25;;;;;;;226.98;149.48;;;34.20;99.90;;;;;;5086163;28;20021;-68
2023/10/01 10:16:56;;;;;;;201.75;134.65;;;34.10;99.90;;;;;;5085967;28;20030;-69
2023/10/01 10:19:24;;;;;;;230.63;143.20;;;34.00;99.90;;;;;;5083360;28;20024;-68
2023/10/01 10:24:36;;;;;;;211.25;140.57;;;34.00;99.90;;;;;;5087601;28;20034;-67
2023/10/01 10:27:15;;;;;;;211.77;141.98;;;33.90;99.90;;;;;;5084122;28;20043;-67
2023/10/01 10:29:57;;;;;;;183.68;128.80;;;33.90;99.90;;;;;;5084791;28;20031;-66
2023/10/01 10:32:31;;;;;;;179.68;124.72;;;33.90;99.90;;;;;;5081669;28;20068;-66
2023/10/01 10:35:04;;;;;;;168.30;114.50;;;33.90;99.90;;;;;;5080706;28;20114;-64
2023/10/01 10:37:37;;;;;;;155.38;108.13;;;33.90;99.90;;;;;;5081038;28;20112;-65
2023/10/01 10:40:04;;;;;;;144.40;103.38;;;33.80;99.90;;;;;;5081352;28;20031;-66
2023/10/01 10:42:33;;;;;;;136.40;96.18;;;33.80;99.90;;;;;;5082147;28;20529;-66
2023/10/01 10:45:21;;;;;;;134.38;93.65;;;33.80;99.90;;;;;;5080506;28;20036;-66
2023/10/01 10:48:08;;;;;;;133.18;92.15;;;33.70;99.90;;;;;;5083063;28;20054;-64
2023/10/01 10:50:53;;;;;;;135.73;90.80;;;33.70;99.90;;;;;;5083895;28;20036;-66
2023/10/01 10:53:22;;;;;;;137.35;86.90;;;33.70;99.90;;;;;;5086439;28;20027;-66
2023/10/01 10:55:55;;;;;;;110.78;76.40;;;33.50;99.90;;;;;;5084046;28;20020;-66
2023/10/01 10:58:31;;;;;;;113.47;69.90;;;33.40;99.90;;;;;;5084427;28;20374;-65
2023/10/01 11:01:15;;;;;;;106.38;67.00;;;33.40;99.90;;;;;;5087965;28;20027;-66
2023/10/01 11:03:57;;;;;;;83.18;55.63;;;33.40;99.90;;;;;;5074660;28;20036;-67
2023/10/01 11:07:01;;;;;;;85.93;55.88;;;33.40;99.90;;;;;;5080131;28;20497;-69
2023/10/01 11:09:30;;;;;;;80.90;52.67;;;33.40;99.90;;;;;;5084093;28;20034;-66
2023/10/01 11:12:07;;;;;;;86.22;52.67;;;33.30;99.90;;;;;;5090819;28;20027;-65
2023/10/01 11:14:37;;;;;;;80.32;54.03;;;33.30;99.90;;;;;;5086883;28;20101;-67
2023/10/01 11:17:07;;;;;;;94.25;53.95;;;33.20;99.90;;;;;;5091155;28;20329;-66
2023/10/01 11:19:37;;;;;;;65.38;42.30;;;33.10;99.90;;;;;;5081265;28;20021;-66
2023/10/01 11:22:05;;;;;;;77.05;52.35;;;33.10;99.90;;;;;;5092359;28;20040;-67
2023/10/01 11:24:39;;;;;;;76.97;53.22;;;33.00;99.90;;;;;;5090921;28;20028;-66
2023/10/01 11:27:15;;;;;;;81.75;60.63;;;33.00;99.90;;;;;;5089414;28;20046;-67
2023/10/01 11:29:43;;;;;;;96.10;68.25;;;32.90;99.90;;;;;;5088945;28;20012;-67
2023/10/01 11:32:16;;;;;;;111.43;84.97;;;32.90;99.90;;;;;;5087485;28;20171;-65
2023/10/01 11:34:55;;;;;;;96.53;68.97;;;32.90;99.90;;;;;;5088325;28;20040;-65
2023/10/01 11:37:30;;;;;;;68.65;43.35;;;32.90;99.90;;;;;;5088172;28;20115;-64
2023/10/01 11:39:57;;;;;;;66.45;45.03;;;32.90;99.90;;;;;;5087725;28;20539;-66
2023/10/01 11:42:38;;;;;;;84.10;58.40;;;32.80;99.90;;;;;;5087501;28;20040;-67
2023/10/01 11:45:30;;;;;;;72.68;51.80;;;32.80;99.90;;;;;;5087317;28;20024;-65
2023/10/01 11:48:06;;;;;;;86.78;62.95;;;32.80;99.90;;;;;;5087778;28;20138;-65
2023/10/01 11:50:50;;;;;;;60.92;43.08;;;32.70;99.90;;;;;;5092675;28;20118;-70
2023/10/01 11:53:28;;;;;;;62.03;42.80;;;32.70;99.90;;;;;;5089844;28;20103;-66
2023/10/01 11:56:01;;;;;;;76.30;51.92;;;32.70;99.90;;;;;;5095542;28;20371;-65
2023/10/01 11:58:29;;;;;;;65.57;42.50;;;32.60;99.90;;;;;;5088379;28;20081;-67
2023/10/01 12:01:01;;;;;;;57.08;40.15;;;32.60;99.90;;;;;;5085290;28;20036;-66
2023/10/01 12:03:27;;;;;;;75.82;45.75;;;32.60;99.90;;;;;;5087779;28;20040;-70
2023/10/01 12:05:56;;;;;;;55.80;37.00;;;32.60;99.90;;;;;;5091090;28;20031;-68
2023/10/01 12:08:35;;;;;;;56.33;36.72;;;32.40;99.90;;;;;;5084401;28;20024;-70
2023/10/01 12:12:02;;;;;;;48.65;32.40;;;32.40;99.90;;;;;;5085908;28;20069;-67
2023/10/01 12:14:08;;;;;;;45.80;32.13;;;32.30;99.90;;;;;;5080742;28;20105;-67
2023/10/01 12:16:39;;;;;;;44.97;31.83;;;32.20;99.90;;;;;;5093107;28;20035;-66
2023/10/01 12:19:27;;;;;;;49.47;32.40;;;32.00;99.90;;;;;;5091897;28;20119;-66
2023/10/01 12:22:05;;;;;;;44.33;31.58;;;32.00;99.90;;;;;;5089465;28;20127;-67
2023/10/01 12:24:45;;;;;;;44.50;30.23;;;32.00;99.90;;;;;;5089366;28;20053;-66
2023/10/01 12:27:37;;;;;;;41.85;30.98;;;32.00;99.90;;;;;;5085854;28;20107;-67
2023/10/01 12:29:58;;;;;;;43.13;31.13;;;32.00;99.90;;;;;;5089127;28;20020;-68
2023/10/01 12:32:40;;;;;;;48.92;33.95;;;32.00;99.90;;;;;;5084126;28;20525;-66
2023/10/01 12:35:29;;;;;;;44.67;32.10;;;31.90;99.90;;;;;;5083352;28;20037;-67
2023/10/01 12:40:36;;;;;;;45.70;32.67;;;31.80;99.90;;;;;;5087253;28;20052;-67
2023/10/01 12:43:36;;;;;;;46.78;34.05;;;31.80;99.90;;;;;;5082541;28;20034;-65
2023/10/01 12:45:52;;;;;;;44.25;30.98;;;31.70;99.90;;;;;;5084070;28;20048;-65
2023/10/01 12:48:21;;;;;;;49.47;34.10;;;31.70;99.90;;;;;;5082551;28;20070;-65
2023/10/01 12:51:00;;;;;;;54.60;34.83;;;31.70;99.90;;;;;;5083292;28;20020;-66
2023/10/01 12:53:48;;;;;;;56.40;35.20;;;31.70;99.90;;;;;;5083158;28;20033;-67
2023/10/01 12:56:16;;;;;;;47.67;34.55;;;31.60;99.90;;;;;;5082493;28;20028;-68
2023/10/01 12:58:53;;;;;;;50.42;37.35;;;31.60;99.90;;;;;;5084816;28;20064;-66
2023/10/01 13:01:32;;;;;;;54.50;37.80;;;31.60;99.90;;;;;;5084033;28;20035;-65
2023/10/01 13:06:48;;;;;;;97.30;62.03;;;31.50;99.90;;;;;;5082705;28;20046;-65
2023/10/01 13:12:10;;;;;;;152.27;90.60;;;31.40;99.90;;;;;;5087680;28;20616;-67
2023/10/01 13:14:36;;;;;;;155.98;93.07;;;31.40;99.90;;;;;;5087264;28;20056;-65
2023/10/01 13:17:03;;;;;;;147.85;92.35;;;31.40;99.90;;;;;;5086917;28;20056;-65
2023/10/01 13:19:39;;;;;;;150.95;94.90;;;31.40;99.90;;;;;;5087461;28;20137;-66
2023/10/01 13:22:05;;;;;;;166.07;100.90;;;31.40;99.90;;;;;;5080428;28;20020;-66
2023/10/01 13:24:32;;;;;;;172.32;108.85;;;31.30;99.90;;;;;;5087009;28;20099;-64
2023/10/01 13:27:10;;;;;;;223.43;130.63;;;31.20;99.90;;;;;;5080354;28;20012;-68
2023/10/01 13:29:40;;;;;;;287.83;170.20;;;31.20;99.90;;;;;;5087119;28;20463;-65